sensor_id;sensor_type;location;lat;lon;timestamp;pressure;altitude;pressure_sealevel;temperature;humidity
77452;BME280;66537;52.370;4.832;2023-03-05T00:00:05;102367.63;;;4.94;74.79
77452;BME280;66537;52.370;4.832;2023-03-05T00:02:31;102362.25;;;4.81;74.77
77452;BME280;66537;52.370;4.832;2023-03-05T00:04:56;102360.91;;;4.99;75.26
77452;BME280;66537;52.370;4.832;2023-03-05T00:07:21;102366.72;;;4.91;74.92
77452;BME280;66537;52.370;4.832;2023-03-05T00:09:47;102361.81;;;5.01;74.83
77452;BME280;66537;52.370;4.832;2023-03-05T00:12:12;102361.88;;;5.07;74.06
77452;BME280;66537;52.370;4.832;2023-03-05T00:14:37;102355.66;;;4.93;73.59
77452;BME280;66537;52.370;4.832;2023-03-05T00:17:03;102350.72;;;5.05;74.05
77452;BME280;66537;52.370;4.832;2023-03-05T00:19:28;102352.88;;;5.29;74.48
77452;BME280;66537;52.370;4.832;2023-03-05T00:21:53;102356.50;;;5.41;74.05
77452;BME280;66537;52.370;4.832;2023-03-05T00:24:19;102345.38;;;5.41;72.78
77452;BME280;66537;52.370;4.832;2023-03-05T00:26:45;102345.34;;;5.38;72.89
77452;BME280;66537;52.370;4.832;2023-03-05T00:29:17;102354.00;;;5.46;72.91
77452;BME280;66537;52.370;4.832;2023-03-05T00:31:43;102346.94;;;5.33;72.46
77452;BME280;66537;52.370;4.832;2023-03-05T00:34:11;102345.34;;;5.38;73.05
77452;BME280;66537;52.370;4.832;2023-03-05T00:36:43;102347.84;;;5.36;73.06
77452;BME280;66537;52.370;4.832;2023-03-05T00:39:10;102346.97;;;4.85;72.25
77452;BME280;66537;52.370;4.832;2023-03-05T00:41:35;102339.81;;;4.69;73.00
77452;BME280;66537;52.370;4.832;2023-03-05T00:44:01;102337.72;;;4.50;72.84
77452;BME280;66537;52.370;4.832;2023-03-05T00:46:27;102332.84;;;4.62;73.79
77452;BME280;66537;52.370;4.832;2023-03-05T00:48:53;102332.19;;;4.72;73.35
77452;BME280;66537;52.370;4.832;2023-03-05T00:51:19;102334.00;;;4.78;73.54
77452;BME280;66537;52.370;4.832;2023-03-05T00:53:45;102324.81;;;4.89;73.72
77452;BME280;66537;52.370;4.832;2023-03-05T00:56:11;102328.22;;;4.89;73.00
77452;BME280;66537;52.370;4.832;2023-03-05T00:58:36;102332.59;;;4.93;72.47
77452;BME280;66537;52.370;4.832;2023-03-05T01:01:03;102323.13;;;4.91;72.47
77452;BME280;66537;52.370;4.832;2023-03-05T01:03:30;102321.19;;;4.78;72.58
77452;BME280;66537;52.370;4.832;2023-03-05T01:05:56;102306.75;;;4.83;72.48
77452;BME280;66537;52.370;4.832;2023-03-05T01:08:22;102319.41;;;4.74;72.67
77452;BME280;66537;52.370;4.832;2023-03-05T01:10:48;102324.13;;;4.99;72.99
77452;BME280;66537;52.370;4.832;2023-03-05T01:13:13;102316.22;;;4.87;72.39
77452;BME280;66537;52.370;4.832;2023-03-05T01:15:39;102322.84;;;4.76;73.30
77452;BME280;66537;52.370;4.832;2023-03-05T01:18:04;102318.28;;;4.61;74.58
77452;BME280;66537;52.370;4.832;2023-03-05T01:20:30;102330.81;;;4.06;76.09
77452;BME280;66537;52.370;4.832;2023-03-05T01:22:55;102320.56;;;4.04;78.29
77452;BME280;66537;52.370;4.832;2023-03-05T01:25:23;102322.66;;;4.22;78.80
77452;BME280;66537;52.370;4.832;2023-03-05T01:27:49;102312.69;;;4.37;79.51
77452;BME280;66537;52.370;4.832;2023-03-05T01:30:14;102303.00;;;4.22;79.59
77452;BME280;66537;52.370;4.832;2023-03-05T01:32:40;102300.41;;;4.21;78.98
77452;BME280;66537;52.370;4.832;2023-03-05T01:35:06;102302.16;;;4.22;79.05
77452;BME280;66537;52.370;4.832;2023-03-05T01:37:32;102298.72;;;4.21;79.11
77452;BME280;66537;52.370;4.832;2023-03-05T01:39:57;102274.97;;;4.30;78.93
77452;BME280;66537;52.370;4.832;2023-03-05T01:42:23;102283.94;;;4.51;78.79
77452;BME280;66537;52.370;4.832;2023-03-05T01:45:17;102271.50;;;4.71;79.45
77452;BME280;66537;52.370;4.832;2023-03-05T01:47:43;102275.72;;;4.68;79.35
77452;BME280;66537;52.370;4.832;2023-03-05T01:50:12;102260.47;;;4.75;79.45
77452;BME280;66537;52.370;4.832;2023-03-05T01:52:40;102269.03;;;4.77;79.23
77452;BME280;66537;52.370;4.832;2023-03-05T01:55:14;102260.50;;;4.78;79.23
77452;BME280;66537;52.370;4.832;2023-03-05T01:57:47;102253.31;;;4.59;78.92
77452;BME280;66537;52.370;4.832;2023-03-05T02:00:19;102252.94;;;4.38;78.99
77452;BME280;66537;52.370;4.832;2023-03-05T02:02:47;102243.75;;;4.49;79.74
77452;BME280;66537;52.370;4.832;2023-03-05T02:05:22;102241.97;;;4.45;79.83
77452;BME280;66537;52.370;4.832;2023-03-05T02:07:55;102233.53;;;4.50;79.40
77452;BME280;66537;52.370;4.832;2023-03-05T02:10:28;102235.25;;;4.51;79.68
77452;BME280;66537;52.370;4.832;2023-03-05T02:12:58;102217.31;;;4.51;79.31
77452;BME280;66537;52.370;4.832;2023-03-05T02:15:24;102220.06;;;4.61;79.39
77452;BME280;66537;52.370;4.832;2023-03-05T02:17:50;102217.53;;;4.64;79.80
77452;BME280;66537;52.370;4.832;2023-03-05T02:20:19;102203.94;;;4.68;79.83
77452;BME280;66537;52.370;4.832;2023-03-05T02:22:45;102218.69;;;4.81;79.40
77452;BME280;66537;52.370;4.832;2023-03-05T02:25:28;102208.63;;;4.93;78.96
77452;BME280;66537;52.370;4.832;2023-03-05T02:28:01;102208.28;;;4.72;78.73
77452;BME280;66537;52.370;4.832;2023-03-05T02:30:29;102208.06;;;4.61;79.56
77452;BME280;66537;52.370;4.832;2023-03-05T02:32:55;102200.63;;;4.75;80.32
77452;BME280;66537;52.370;4.832;2023-03-05T02:35:21;102204.94;;;4.76;80.17
77452;BME280;66537;52.370;4.832;2023-03-05T02:37:46;102193.56;;;4.62;80.65
77452;BME280;66537;52.370;4.832;2023-03-05T02:40:12;102197.91;;;4.66;80.00
77452;BME280;66537;52.370;4.832;2023-03-05T02:42:38;102190.31;;;4.70;78.99
77452;BME280;66537;52.370;4.832;2023-03-05T02:45:05;102191.03;;;4.63;79.15
77452;BME280;66537;52.370;4.832;2023-03-05T02:47:30;102186.66;;;4.56;79.55
77452;BME280;66537;52.370;4.832;2023-03-05T02:49:56;102176.63;;;4.70;79.86
77452;BME280;66537;52.370;4.832;2023-03-05T02:52:21;102184.97;;;4.56;79.63
77452;BME280;66537;52.370;4.832;2023-03-05T02:54:48;102184.78;;;4.47;80.22
77452;BME280;66537;52.370;4.832;2023-03-05T02:57:14;102182.41;;;4.58;80.33
77452;BME280;66537;52.370;4.832;2023-03-05T02:59:39;102175.44;;;4.51;80.88
77452;BME280;66537;52.370;4.832;2023-03-05T03:02:05;102168.88;;;4.67;81.19
77452;BME280;66537;52.370;4.832;2023-03-05T03:04:30;102163.94;;;4.79;80.95
77452;BME280;66537;52.370;4.832;2023-03-05T03:06:56;102157.59;;;4.57;80.16
77452;BME280;66537;52.370;4.832;2023-03-05T03:09:21;102155.78;;;4.48;80.97
77452;BME280;66537;52.370;4.832;2023-03-05T03:11:47;102149.72;;;4.45;80.33
77452;BME280;66537;52.370;4.832;2023-03-05T03:14:12;102143.53;;;4.34;80.45
77452;BME280;66537;52.370;4.832;2023-03-05T03:16:37;102150.09;;;4.68;80.42
77452;BME280;66537;52.370;4.832;2023-03-05T03:19:03;102140.63;;;4.62;79.75
77452;BME280;66537;52.370;4.832;2023-03-05T03:21:28;102149.25;;;4.69;79.54
77452;BME280;66537;52.370;4.832;2023-03-05T03:23:53;102143.13;;;4.59;79.77
77452;BME280;66537;52.370;4.832;2023-03-05T03:26:19;102145.75;;;4.64;79.60
77452;BME280;66537;52.370;4.832;2023-03-05T03:28:44;102135.53;;;4.67;79.87
77452;BME280;66537;52.370;4.832;2023-03-05T03:31:10;102136.41;;;4.66;79.89
77452;BME280;66537;52.370;4.832;2023-03-05T03:33:35;102125.25;;;4.62;80.40
77452;BME280;66537;52.370;4.832;2023-03-05T03:36:03;102130.38;;;4.64;80.53
77452;BME280;66537;52.370;4.832;2023-03-05T03:38:28;102127.72;;;4.56;80.13
77452;BME280;66537;52.370;4.832;2023-03-05T03:40:54;102124.25;;;4.54;80.09
77452;BME280;66537;52.370;4.832;2023-03-05T03:43:19;102118.22;;;4.50;80.42
77452;BME280;66537;52.370;4.832;2023-03-05T03:45:44;102121.59;;;4.49;81.16
77452;BME280;66537;52.370;4.832;2023-03-05T03:48:10;102107.78;;;4.41;80.70
77452;BME280;66537;52.370;4.832;2023-03-05T03:50:41;102119.91;;;4.50;80.84
77452;BME280;66537;52.370;4.832;2023-03-05T03:53:08;102112.03;;;4.39;81.22
77452;BME280;66537;52.370;4.832;2023-03-05T03:55:33;102107.19;;;4.56;80.88
77452;BME280;66537;52.370;4.832;2023-03-05T03:57:59;102097.94;;;4.66;81.25
77452;BME280;66537;52.370;4.832;2023-03-05T04:00:25;102098.88;;;4.71;80.54
77452;BME280;66537;52.370;4.832;2023-03-05T04:02:50;102098.13;;;4.76;80.00
77452;BME280;66537;52.370;4.832;2023-03-05T04:05:16;102098.97;;;4.77;79.72
77452;BME280;66537;52.370;4.832;2023-03-05T04:07:41;102097.16;;;4.70;79.27
77452;BME280;66537;52.370;4.832;2023-03-05T04:10:07;102092.31;;;4.34;80.48
77452;BME280;66537;52.370;4.832;2023-03-05T04:12:33;102102.88;;;4.53;80.75
77452;BME280;66537;52.370;4.832;2023-03-05T04:14:58;102084.16;;;4.59;80.25
77452;BME280;66537;52.370;4.832;2023-03-05T04:17:23;102088.59;;;4.69;80.35
77452;BME280;66537;52.370;4.832;2023-03-05T04:19:49;102090.22;;;4.63;80.33
77452;BME280;66537;52.370;4.832;2023-03-05T04:22:16;102085.25;;;4.73;80.35
77452;BME280;66537;52.370;4.832;2023-03-05T04:24:42;102076.44;;;4.54;80.10
77452;BME280;66537;52.370;4.832;2023-03-05T04:27:08;102088.78;;;4.27;80.61
77452;BME280;66537;52.370;4.832;2023-03-05T04:29:34;102078.72;;;4.39;80.60
77452;BME280;66537;52.370;4.832;2023-03-05T04:32:00;102075.13;;;4.27;80.57
77452;BME280;66537;52.370;4.832;2023-03-05T04:34:26;102072.31;;;4.13;80.35
77452;BME280;66537;52.370;4.832;2023-03-05T04:36:51;102068.09;;;4.15;80.98
77452;BME280;66537;52.370;4.832;2023-03-05T04:39:18;102073.34;;;4.23;80.58
77452;BME280;66537;52.370;4.832;2023-03-05T04:41:46;102066.22;;;4.07;81.63
77452;BME280;66537;52.370;4.832;2023-03-05T04:44:11;102064.84;;;4.24;81.92
77452;BME280;66537;52.370;4.832;2023-03-05T04:46:36;102069.47;;;4.47;81.81
77452;BME280;66537;52.370;4.832;2023-03-05T04:49:02;102073.09;;;4.60;80.89
77452;BME280;66537;52.370;4.832;2023-03-05T04:51:27;102065.47;;;4.65;80.68
77452;BME280;66537;52.370;4.832;2023-03-05T04:53:52;102071.47;;;4.67;80.85
77452;BME280;66537;52.370;4.832;2023-03-05T04:56:18;102067.28;;;4.72;80.16
77452;BME280;66537;52.370;4.832;2023-03-05T04:58:43;102062.19;;;4.73;80.17
77452;BME280;66537;52.370;4.832;2023-03-05T05:01:08;102061.28;;;4.70;80.01
77452;BME280;66537;52.370;4.832;2023-03-05T05:03:34;102051.84;;;4.69;80.53
77452;BME280;66537;52.370;4.832;2023-03-05T05:06:00;102044.72;;;4.48;80.04
77452;BME280;66537;52.370;4.832;2023-03-05T05:08:27;102045.00;;;4.68;80.43
77452;BME280;66537;52.370;4.832;2023-03-05T05:11:02;102037.25;;;4.63;80.67
77452;BME280;66537;52.370;4.832;2023-03-05T05:13:28;102040.44;;;4.47;80.72
77452;BME280;66537;52.370;4.832;2023-03-05T05:15:54;102034.56;;;4.54;80.67
77452;BME280;66537;52.370;4.832;2023-03-05T05:18:19;102031.91;;;4.49;80.62
77452;BME280;66537;52.370;4.832;2023-03-05T05:20:45;102035.47;;;4.59;80.44
77452;BME280;66537;52.370;4.832;2023-03-05T05:23:10;102027.00;;;4.65;80.61
77452;BME280;66537;52.370;4.832;2023-03-05T05:25:35;102033.00;;;4.65;80.25
77452;BME280;66537;52.370;4.832;2023-03-05T05:28:01;102026.25;;;4.70;81.14
77452;BME280;66537;52.370;4.832;2023-03-05T05:30:26;102025.31;;;4.65;80.56
77452;BME280;66537;52.370;4.832;2023-03-05T05:32:51;102016.81;;;4.68;80.02
77452;BME280;66537;52.370;4.832;2023-03-05T05:35:17;102027.09;;;4.71;80.52
77452;BME280;66537;52.370;4.832;2023-03-05T05:37:42;102015.09;;;4.67;80.25
77452;BME280;66537;52.370;4.832;2023-03-05T05:40:08;102006.59;;;4.71;80.08
77452;BME280;66537;52.370;4.832;2023-03-05T05:42:34;102009.91;;;4.62;80.25
77452;BME280;66537;52.370;4.832;2023-03-05T05:44:59;102006.47;;;4.62;80.03
77452;BME280;66537;52.370;4.832;2023-03-05T05:47:27;102000.38;;;4.53;79.88
77452;BME280;66537;52.370;4.832;2023-03-05T05:49:52;102010.59;;;4.50;80.27
77452;BME280;66537;52.370;4.832;2023-03-05T05:52:18;102000.19;;;4.40;80.01
77452;BME280;66537;52.370;4.832;2023-03-05T05:54:43;102001.06;;;4.40;80.15
77452;BME280;66537;52.370;4.832;2023-03-05T05:57:08;101999.31;;;4.39;80.31
77452;BME280;66537;52.370;4.832;2023-03-05T05:59:34;101992.50;;;4.40;80.40
77452;BME280;66537;52.370;4.832;2023-03-05T06:01:59;101995.69;;;4.25;80.59
77452;BME280;66537;52.370;4.832;2023-03-05T06:04:25;102002.59;;;4.29;81.10
77452;BME280;66537;52.370;4.832;2023-03-05T06:06:50;102001.03;;;4.39;81.03
77452;BME280;66537;52.370;4.832;2023-03-05T06:09:16;102009.75;;;4.53;80.55
77452;BME280;66537;52.370;4.832;2023-03-05T06:11:41;102003.69;;;4.46;80.55
77452;BME280;66537;52.370;4.832;2023-03-05T06:14:07;102012.09;;;4.36;80.59
77452;BME280;66537;52.370;4.832;2023-03-05T06:16:33;102005.16;;;3.79;80.70
77452;BME280;66537;52.370;4.832;2023-03-05T06:18:59;101998.06;;;3.64;81.83
77452;BME280;66537;52.370;4.832;2023-03-05T06:21:29;102002.28;;;3.62;82.49
77452;BME280;66537;52.370;4.832;2023-03-05T06:23:54;101997.50;;;3.80;82.23
77452;BME280;66537;52.370;4.832;2023-03-05T06:26:21;102000.22;;;3.89;81.00
77452;BME280;66537;52.370;4.832;2023-03-05T06:28:47;102002.88;;;3.95;80.76
77452;BME280;66537;52.370;4.832;2023-03-05T06:31:15;102006.44;;;4.03;80.81
77452;BME280;66537;52.370;4.832;2023-03-05T06:33:41;102001.44;;;4.11;80.14
77452;BME280;66537;52.370;4.832;2023-03-05T06:36:10;101993.28;;;4.34;80.13
77452;BME280;66537;52.370;4.832;2023-03-05T06:38:36;102001.84;;;4.38;79.08
77452;BME280;66537;52.370;4.832;2023-03-05T06:41:12;101995.81;;;4.33;79.13
77452;BME280;66537;52.370;4.832;2023-03-05T06:43:40;101999.19;;;4.32;80.04
77452;BME280;66537;52.370;4.832;2023-03-05T06:48:38;101987.53;;;4.49;80.12
77452;BME280;66537;52.370;4.832;2023-03-05T06:51:04;101992.00;;;4.67;79.17
77452;BME280;66537;52.370;4.832;2023-03-05T06:53:30;101979.28;;;4.71;79.64
77452;BME280;66537;52.370;4.832;2023-03-05T06:55:56;101990.50;;;4.81;79.41
77452;BME280;66537;52.370;4.832;2023-03-05T06:58:21;101988.72;;;4.75;78.25
77452;BME280;66537;52.370;4.832;2023-03-05T07:00:47;101990.50;;;4.81;78.22
77452;BME280;66537;52.370;4.832;2023-03-05T07:03:12;101989.78;;;4.91;79.07
77452;BME280;66537;52.370;4.832;2023-03-05T07:05:39;101991.56;;;4.95;78.40
77452;BME280;66537;52.370;4.832;2023-03-05T07:08:04;101986.41;;;4.93;78.18
77452;BME280;66537;52.370;4.832;2023-03-05T07:10:30;101998.28;;;4.88;78.28
77452;BME280;66537;52.370;4.832;2023-03-05T07:12:55;101990.69;;;4.94;78.76
77452;BME280;66537;52.370;4.832;2023-03-05T07:15:21;101996.94;;;4.51;77.78
77452;BME280;66537;52.370;4.832;2023-03-05T07:17:46;101985.59;;;4.36;78.95
77452;BME280;66537;52.370;4.832;2023-03-05T07:20:12;101989.16;;;4.45;78.60
77452;BME280;66537;52.370;4.832;2023-03-05T07:22:38;101982.31;;;4.43;78.19
77452;BME280;66537;52.370;4.832;2023-03-05T07:25:04;101976.72;;;4.71;78.99
77452;BME280;66537;52.370;4.832;2023-03-05T07:27:29;101980.44;;;4.94;77.61
77452;BME280;66537;52.370;4.832;2023-03-05T07:29:55;101984.81;;;5.01;76.84
77452;BME280;66537;52.370;4.832;2023-03-05T07:32:20;101982.16;;;4.97;77.10
77452;BME280;66537;52.370;4.832;2023-03-05T07:34:45;101984.19;;;5.22;77.62
77452;BME280;66537;52.370;4.832;2023-03-05T07:37:12;101980.66;;;5.11;76.47
77452;BME280;66537;52.370;4.832;2023-03-05T07:39:37;101978.91;;;5.11;74.22
77452;BME280;66537;52.370;4.832;2023-03-05T07:42:03;101978.03;;;5.09;75.51
77452;BME280;66537;52.370;4.832;2023-03-05T07:44:28;101979.16;;;5.32;76.91
77452;BME280;66537;52.370;4.832;2023-03-05T07:46:53;101965.03;;;4.93;75.78
77452;BME280;66537;52.370;4.832;2023-03-05T07:49:19;101978.03;;;5.08;75.95
77452;BME280;66537;52.370;4.832;2023-03-05T07:51:44;101974.94;;;5.36;76.59
77452;BME280;66537;52.370;4.832;2023-03-05T07:54:09;101970.69;;;5.38;76.64
77452;BME280;66537;52.370;4.832;2023-03-05T07:56:35;101974.84;;;5.28;76.23
77452;BME280;66537;52.370;4.832;2023-03-05T07:59:06;101980.72;;;5.18;76.51
77452;BME280;66537;52.370;4.832;2023-03-05T08:01:33;101980.59;;;5.08;76.91
77452;BME280;66537;52.370;4.832;2023-03-05T08:03:59;101970.41;;;5.12;77.21
77452;BME280;66537;52.370;4.832;2023-03-05T08:06:25;101970.41;;;5.15;76.84
77452;BME280;66537;52.370;4.832;2023-03-05T08:08:50;101964.53;;;5.22;78.19
77452;BME280;66537;52.370;4.832;2023-03-05T08:11:15;101967.03;;;5.19;77.35
77452;BME280;66537;52.370;4.832;2023-03-05T08:13:42;101956.78;;;5.21;76.68
77452;BME280;66537;52.370;4.832;2023-03-05T08:16:11;101967.13;;;5.25;75.54
77452;BME280;66537;52.370;4.832;2023-03-05T08:18:37;101961.97;;;5.22;76.68
77452;BME280;66537;52.370;4.832;2023-03-05T08:21:02;101959.66;;;5.48;76.05
77452;BME280;66537;52.370;4.832;2023-03-05T08:23:28;101953.34;;;5.17;75.88
77452;BME280;66537;52.370;4.832;2023-03-05T08:25:54;101960.50;;;5.45;77.30
77452;BME280;66537;52.370;4.832;2023-03-05T08:28:19;101961.34;;;5.46;75.66
77452;BME280;66537;52.370;4.832;2023-03-05T08:30:46;101951.09;;;5.47;75.63
77452;BME280;66537;52.370;4.832;2023-03-05T08:33:12;101949.09;;;6.09;74.71
77452;BME280;66537;52.370;4.832;2023-03-05T08:35:38;101938.53;;;5.76;72.51
77452;BME280;66537;52.370;4.832;2023-03-05T08:38:04;101942.19;;;6.02;73.12
77452;BME280;66537;52.370;4.832;2023-03-05T08:40:30;101938.00;;;6.13;72.94
77452;BME280;66537;52.370;4.832;2023-03-05T08:42:56;101945.63;;;6.04;72.93
77452;BME280;66537;52.370;4.832;2023-03-05T08:45:21;101939.28;;;5.66;72.82
77452;BME280;66537;52.370;4.832;2023-03-05T08:47:47;101935.34;;;6.01;72.77
77452;BME280;66537;52.370;4.832;2023-03-05T08:50:13;101934.53;;;6.10;73.23
77452;BME280;66537;52.370;4.832;2023-03-05T08:52:38;101930.34;;;6.25;72.65
77452;BME280;66537;52.370;4.832;2023-03-05T08:55:03;101923.38;;;6.08;72.48
77452;BME280;66537;52.370;4.832;2023-03-05T08:57:29;101924.34;;;6.22;72.52
77452;BME280;66537;52.370;4.832;2023-03-05T08:59:54;101928.88;;;6.65;74.60
77452;BME280;66537;52.370;4.832;2023-03-05T09:02:19;101927.03;;;6.45;70.99
77452;BME280;66537;52.370;4.832;2023-03-05T09:04:45;101926.16;;;6.39;70.63
77452;BME280;66537;52.370;4.832;2023-03-05T09:07:10;101918.44;;;6.39;70.74
77452;BME280;66537;52.370;4.832;2023-03-05T09:09:37;101923.75;;;6.73;69.76
77452;BME280;66537;52.370;4.832;2023-03-05T09:12:02;101920.41;;;6.89;68.49
77452;BME280;66537;52.370;4.832;2023-03-05T09:14:28;101915.38;;;7.88;69.01
77452;BME280;66537;52.370;4.832;2023-03-05T09:16:54;101915.34;;;8.38;66.75
77452;BME280;66537;52.370;4.832;2023-03-05T09:19:20;101909.31;;;8.42;63.47
77452;BME280;66537;52.370;4.832;2023-03-05T09:21:45;101914.50;;;8.29;66.19
77452;BME280;66537;52.370;4.832;2023-03-05T09:24:12;101910.22;;;8.20;66.74
77452;BME280;66537;52.370;4.832;2023-03-05T09:26:37;101911.94;;;8.16;64.85
77452;BME280;66537;52.370;4.832;2023-03-05T09:29:03;101912.78;;;8.17;64.94
77452;BME280;66537;52.370;4.832;2023-03-05T09:31:31;101909.38;;;7.92;66.81
77452;BME280;66537;52.370;4.832;2023-03-05T09:33:56;101909.38;;;8.10;67.04
77452;BME280;66537;52.370;4.832;2023-03-05T09:36:24;101909.38;;;8.26;68.38
77452;BME280;66537;52.370;4.832;2023-03-05T09:38:50;101906.78;;;8.18;66.32
77452;BME280;66537;52.370;4.832;2023-03-05T09:41:57;101912.69;;;8.58;65.26
77452;BME280;66537;52.370;4.832;2023-03-05T09:50:32;101897.38;;;7.97;65.11
77452;BME280;66537;52.370;4.832;2023-03-05T09:53:06;101891.31;;;8.26;65.01
77452;BME280;66537;52.370;4.832;2023-03-05T09:55:42;101893.03;;;8.30;64.77
77452;BME280;66537;52.370;4.832;2023-03-05T09:58:42;101890.38;;;8.57;64.46
77452;BME280;66537;52.370;4.832;2023-03-05T10:01:21;101890.88;;;9.24;63.38
77452;BME280;66537;52.370;4.832;2023-03-05T10:04:11;101891.66;;;9.36;63.18
77452;BME280;66537;52.370;4.832;2023-03-05T10:06:58;101879.78;;;9.09;63.72
77452;BME280;66537;52.370;4.832;2023-03-05T10:12:24;101881.03;;;7.94;64.95
77452;BME280;66537;52.370;4.832;2023-03-05T10:14:52;101883.59;;;8.12;65.48
77452;BME280;66537;52.370;4.832;2023-03-05T10:28:34;101875.00;;;7.10;66.33
77452;BME280;66537;52.370;4.832;2023-03-05T10:32:03;101863.91;;;7.39;67.59
77452;BME280;66537;52.370;4.832;2023-03-05T10:40:17;101845.75;;;6.71;68.11
77452;BME280;66537;52.370;4.832;2023-03-05T10:45:41;101847.56;;;7.11;68.16
77452;BME280;66537;52.370;4.832;2023-03-05T10:48:18;101848.38;;;6.84;66.61
77452;BME280;66537;52.370;4.832;2023-03-05T10:50:48;101850.94;;;6.92;67.56
77452;BME280;66537;52.370;4.832;2023-03-05T10:56:00;101829.56;;;7.43;66.40
77452;BME280;66537;52.370;4.832;2023-03-05T10:58:25;101831.28;;;7.27;64.78
77452;BME280;66537;52.370;4.832;2023-03-05T11:01:05;101825.28;;;7.25;65.49
77452;BME280;66537;52.370;4.832;2023-03-05T11:04:02;101820.91;;;6.82;66.08
77452;BME280;66537;52.370;4.832;2023-03-05T11:06:38;101816.66;;;7.12;66.47
77452;BME280;66537;52.370;4.832;2023-03-05T11:09:19;101817.50;;;7.01;65.27
77452;BME280;66537;52.370;4.832;2023-03-05T11:14:34;101806.34;;;6.73;63.87
77452;BME280;66537;52.370;4.832;2023-03-05T11:17:01;101806.38;;;6.87;63.76
77452;BME280;66537;52.370;4.832;2023-03-05T11:19:33;101808.06;;;6.89;64.21
77452;BME280;66537;52.370;4.832;2023-03-05T11:25:16;101793.53;;;7.23;63.87
77452;BME280;66537;52.370;4.832;2023-03-05T11:27:54;101788.38;;;7.37;62.95
77452;BME280;66537;52.370;4.832;2023-03-05T11:30:21;101787.53;;;7.35;62.26
77452;BME280;66537;52.370;4.832;2023-03-05T11:32:48;101783.22;;;7.00;63.90
77452;BME280;66537;52.370;4.832;2023-03-05T11:35:32;101778.94;;;7.34;63.80
77452;BME280;66537;52.370;4.832;2023-03-05T11:38:00;101777.19;;;7.69;62.33
77452;BME280;66537;52.370;4.832;2023-03-05T11:40:26;101769.41;;;7.89;61.33
77452;BME280;66537;52.370;4.832;2023-03-05T11:42:58;101770.03;;;8.48;60.61
77452;BME280;66537;52.370;4.832;2023-03-05T11:45:25;101770.91;;;8.47;59.01
77452;BME280;66537;52.370;4.832;2023-03-05T11:47:56;101768.28;;;8.52;60.02
77452;BME280;66537;52.370;4.832;2023-03-05T11:50:29;101766.47;;;8.75;58.65
77452;BME280;66537;52.370;4.832;2023-03-05T11:53:18;101757.78;;;8.83;56.48
77452;BME280;66537;52.370;4.832;2023-03-05T11:55:51;101764.97;;;8.32;56.79
77452;BME280;66537;52.370;4.832;2023-03-05T11:58:42;101757.25;;;8.29;56.70
77452;BME280;66537;52.370;4.832;2023-03-05T12:01:16;101746.69;;;8.74;58.11
77452;BME280;66537;52.370;4.832;2023-03-05T12:03:42;101743.34;;;8.61;57.83
77452;BME280;66537;52.370;4.832;2023-03-05T12:09:11;101732.25;;;8.46;58.79
77452;BME280;66537;52.370;4.832;2023-03-05T12:11:37;101725.44;;;8.36;57.42
77452;BME280;66537;52.370;4.832;2023-03-05T12:14:20;101728.66;;;8.68;56.86
77452;BME280;66537;52.370;4.832;2023-03-05T12:16:52;101714.13;;;8.55;56.63
77452;BME280;66537;52.370;4.832;2023-03-05T12:21:53;101710.50;;;8.81;57.14
77452;BME280;66537;52.370;4.832;2023-03-05T12:26:53;101711.09;;;9.15;54.82
77452;BME280;66537;52.370;4.832;2023-03-05T12:34:48;101693.81;;;7.93;58.17
77452;BME280;66537;52.370;4.832;2023-03-05T12:39:56;101687.78;;;8.03;58.59
77452;BME280;66537;52.370;4.832;2023-03-05T12:47:45;101672.28;;;8.06;56.79
77452;BME280;66537;52.370;4.832;2023-03-05T12:55:22;101655.31;;;7.58;57.81
77452;BME280;66537;52.370;4.832;2023-03-05T12:57:56;101656.13;;;7.65;59.41
77452;BME280;66537;52.370;4.832;2023-03-05T13:00:28;101651.03;;;7.57;59.72
77452;BME280;66537;52.370;4.832;2023-03-05T13:02:59;101656.16;;;7.66;59.01
77452;BME280;66537;52.370;4.832;2023-03-05T13:05:30;101648.56;;;7.25;59.13
77452;BME280;66537;52.370;4.832;2023-03-05T13:08:12;101639.09;;;7.41;58.58
77452;BME280;66537;52.370;4.832;2023-03-05T13:10:37;101623.69;;;7.21;58.82
77452;BME280;66537;52.370;4.832;2023-03-05T13:13:03;101629.66;;;7.26;60.37
77452;BME280;66537;52.370;4.832;2023-03-05T13:15:30;101619.41;;;7.19;59.79
77452;BME280;66537;52.370;4.832;2023-03-05T13:17:58;101611.66;;;7.29;58.98
77452;BME280;66537;52.370;4.832;2023-03-05T13:20:30;101615.06;;;7.30;59.18
77452;BME280;66537;52.370;4.832;2023-03-05T13:27:03;101612.44;;;7.50;59.77
77452;BME280;66537;52.370;4.832;2023-03-05T13:32:24;101603.69;;;7.87;58.45
77452;BME280;66537;52.370;4.832;2023-03-05T13:34:32;101593.31;;;7.94;57.90
77452;BME280;66537;52.370;4.832;2023-03-05T13:37:03;101595.09;;;7.85;58.14
77452;BME280;66537;52.370;4.832;2023-03-05T13:39:32;101599.44;;;7.77;58.14
77452;BME280;66537;52.370;4.832;2023-03-05T13:42:19;101592.63;;;7.70;57.78
77452;BME280;66537;52.370;4.832;2023-03-05T13:44:58;101591.78;;;7.63;58.21
77452;BME280;66537;52.370;4.832;2023-03-05T13:47:26;101584.75;;;7.95;59.73
77452;BME280;66537;52.370;4.832;2023-03-05T13:50:04;101586.47;;;7.93;56.14
77452;BME280;66537;52.370;4.832;2023-03-05T13:52:32;101589.00;;;8.01;56.04
77452;BME280;66537;52.370;4.832;2023-03-05T13:54:59;101583.84;;;7.98;56.47
77452;BME280;66537;52.370;4.832;2023-03-05T13:57:39;101586.66;;;7.51;56.60
77452;BME280;66537;52.370;4.832;2023-03-05T14:05:45;101579.97;;;7.05;57.32
77452;BME280;66537;52.370;4.832;2023-03-05T14:08:19;101573.13;;;6.99;56.24
77452;BME280;66537;52.370;4.832;2023-03-05T14:10:45;101564.47;;;7.30;56.76
77452;BME280;66537;52.370;4.832;2023-03-05T14:13:12;101569.66;;;7.11;57.18
77452;BME280;66537;52.370;4.832;2023-03-05T14:15:41;101570.53;;;7.10;57.26
77452;BME280;66537;52.370;4.832;2023-03-05T14:18:15;101568.78;;;7.16;57.55
77452;BME280;66537;52.370;4.832;2023-03-05T14:20:58;101569.69;;;7.08;57.79
77452;BME280;66537;52.370;4.832;2023-03-05T14:23:39;101562.84;;;6.93;57.80